sensor_id;sensor_type;location;lat;lon;timestamp;pressure;altitude;pressure_sealevel;temperature;humidity
50652;BME280;61429;52.086;5.240;2022-11-06T06:40:40;100985.0;;;12.11;76.89
50652;BME280;61429;52.086;5.240;2022-11-06T06:42:17;100989.0;;;12.08;77.3
50652;BME280;61429;52.086;5.240;2022-11-06T06:45:32;100993.0;;;11.93;78.19
50652;BME280;61429;52.086;5.240;2022-11-06T06:47:08;100994.0;;;12.03;77.81
50652;BME280;61429;52.086;5.240;2022-11-06T06:48:45;100998.0;;;12.07;78.02
50652;BME280;61429;52.086;5.240;2022-11-06T06:51:57;100994.0;;;12.16;77.61
50652;BME280;61429;52.086;5.240;2022-11-06T06:53:35;100996.0;;;12.08;77.91
50652;BME280;61429;52.086;5.240;2022-11-06T06:55:11;100995.0;;;12.02;78.23
50652;BME280;61429;52.086;5.240;2022-11-06T06:58:25;100982.0;;;12.04;78.14
50652;BME280;61429;52.086;5.240;2022-11-06T07:00:02;100977.0;;;12.03;78.64
50652;BME280;61429;52.086;5.240;2022-11-06T07:01:40;100978.0;;;11.98;78.94
50652;BME280;61429;52.086;5.240;2022-11-06T07:03:16;100969.0;;;12.02;78.8
50652;BME280;61429;52.086;5.240;2022-11-06T07:06:28;100970.0;;;12.07;78.06
50652;BME280;61429;52.086;5.240;2022-11-06T07:08:05;100973.0;;;12.04;78.39
50652;BME280;61429;52.086;5.240;2022-11-06T07:09:41;100972.0;;;11.98;78.52
50652;BME280;61429;52.086;5.240;2022-11-06T07:12:54;100971.0;;;11.97;78.47
50652;BME280;61429;52.086;5.240;2022-11-06T07:14:30;100971.0;;;12.05;78.24
50652;BME280;61429;52.086;5.240;2022-11-06T07:16:08;100973.0;;;11.88;78.73
50652;BME280;61429;52.086;5.240;2022-11-06T07:19:22;100969.0;;;11.86;78.88
50652;BME280;61429;52.086;5.240;2022-11-06T07:20:58;100973.0;;;12.09;78.06
50652;BME280;61429;52.086;5.240;2022-11-06T07:22:36;100967.0;;;11.84;78.8
50652;BME280;61429;52.086;5.240;2022-11-06T07:24:12;100964.0;;;11.98;78.3
50652;BME280;61429;52.086;5.240;2022-11-06T07:27:28;100962.0;;;11.84;78.97
50652;BME280;61429;52.086;5.240;2022-11-06T07:29:05;100962.0;;;11.82;78.95
50652;BME280;61429;52.086;5.240;2022-11-06T07:30:41;100957.0;;;11.85;79.47
50652;BME280;61429;52.086;5.240;2022-11-06T07:33:54;100958.0;;;11.97;78.8
50652;BME280;61429;52.086;5.240;2022-11-06T07:35:32;100959.0;;;11.93;79.22
50652;BME280;61429;52.086;5.240;2022-11-06T07:37:09;100959.0;;;12.06;79.02
50652;BME280;61429;52.086;5.240;2022-11-06T07:38:45;100968.0;;;12.12;78.73
50652;BME280;61429;52.086;5.240;2022-11-06T07:41:59;100962.0;;;11.9;79.12
50652;BME280;61429;52.086;5.240;2022-11-06T07:43:36;100971.0;;;11.99;78.75
50652;BME280;61429;52.086;5.240;2022-11-06T07:45:12;100972.0;;;12.07;78.55
50652;BME280;61429;52.086;5.240;2022-11-06T07:48:27;100970.0;;;12.1;78.16
50652;BME280;61429;52.086;5.240;2022-11-06T07:50:04;100971.0;;;12.07;78.52
50652;BME280;61429;52.086;5.240;2022-11-06T07:51:42;100969.0;;;12.15;78.16
50652;BME280;61429;52.086;5.240;2022-11-06T07:54:56;100967.0;;;12.22;77.8
50652;BME280;61429;52.086;5.240;2022-11-06T07:56:33;100968.0;;;12.23;77.81
50652;BME280;61429;52.086;5.240;2022-11-06T07:58:10;100958.0;;;12.22;77.84
50652;BME280;61429;52.086;5.240;2022-11-06T07:59:46;100953.0;;;12.34;77.48
50652;BME280;61429;52.086;5.240;2022-11-06T08:02:58;100958.0;;;12.34;77.56
50652;BME280;61429;52.086;5.240;2022-11-06T08:04:35;100956.0;;;12.33;77.47
50652;BME280;61429;52.086;5.240;2022-11-06T08:06:11;100945.0;;;12.45;77.39
50652;BME280;61429;52.086;5.240;2022-11-06T08:09:31;100947.0;;;12.56;76.75
50652;BME280;61429;52.086;5.240;2022-11-06T08:11:09;100950.0;;;12.41;77.02
50652;BME280;61429;52.086;5.240;2022-11-06T08:12:47;100949.0;;;12.51;76.66
50652;BME280;61429;52.086;5.240;2022-11-06T08:14:24;100944.0;;;12.64;76.52
50652;BME280;61429;52.086;5.240;2022-11-06T08:17:42;100944.0;;;12.69;75.94
50652;BME280;61429;52.086;5.240;2022-11-06T08:19:18;100942.0;;;12.67;76.27
50652;BME280;61429;52.086;5.240;2022-11-06T08:20:55;100940.0;;;12.69;75.73
50652;BME280;61429;52.086;5.240;2022-11-06T08:24:08;100938.0;;;12.85;75.5
50652;BME280;61429;52.086;5.240;2022-11-06T08:25:45;100933.0;;;12.96;75.41
50652;BME280;61429;52.086;5.240;2022-11-06T08:27:22;100931.0;;;13.0;75.19
50652;BME280;61429;52.086;5.240;2022-11-06T08:28:58;100931.0;;;13.18;74.74
50652;BME280;61429;52.086;5.240;2022-11-06T08:32:13;100931.0;;;13.34;74.2
50652;BME280;61429;52.086;5.240;2022-11-06T08:33:49;100930.0;;;13.14;74.47
50652;BME280;61429;52.086;5.240;2022-11-06T08:35:26;100924.0;;;13.33;74.33
50652;BME280;61429;52.086;5.240;2022-11-06T08:38:39;100922.0;;;13.27;74.09
50652;BME280;61429;52.086;5.240;2022-11-06T08:40:16;100914.0;;;13.29;74.05
50652;BME280;61429;52.086;5.240;2022-11-06T08:41:53;100920.0;;;13.54;73.19
50652;BME280;61429;52.086;5.240;2022-11-06T08:45:06;100920.0;;;13.46;73.11
50652;BME280;61429;52.086;5.240;2022-11-06T08:46:43;100910.0;;;13.49;73.37
50652;BME280;61429;52.086;5.240;2022-11-06T08:48:20;100902.0;;;13.66;73.06
50652;BME280;61429;52.086;5.240;2022-11-06T08:49:57;100894.0;;;13.73;72.69
50652;BME280;61429;52.086;5.240;2022-11-06T08:53:10;100892.0;;;13.84;72.38
50652;BME280;61429;52.086;5.240;2022-11-06T08:54:46;100896.0;;;13.7;72.19
50652;BME280;61429;52.086;5.240;2022-11-06T08:56:23;100894.0;;;13.69;72.14
50652;BME280;61429;52.086;5.240;2022-11-06T08:59:37;100892.0;;;13.76;72.16
50652;BME280;61429;52.086;5.240;2022-11-06T09:01:15;100888.0;;;13.77;71.95
50652;BME280;61429;52.086;5.240;2022-11-06T09:02:56;100885.0;;;13.94;71.27
50652;BME280;61429;52.086;5.240;2022-11-06T09:04:33;100886.0;;;13.89;71.13
50652;BME280;61429;52.086;5.240;2022-11-06T09:07:45;100882.0;;;13.92;71.08
50652;BME280;61429;52.086;5.240;2022-11-06T09:09:23;100880.0;;;14.05;70.97
50652;BME280;61429;52.086;5.240;2022-11-06T09:10:59;100874.0;;;14.09;70.99
50652;BME280;61429;52.086;5.240;2022-11-06T09:14:11;100866.0;;;14.13;70.87
50652;BME280;61429;52.086;5.240;2022-11-06T09:15:47;100861.0;;;14.12;70.58
50652;BME280;61429;52.086;5.240;2022-11-06T09:17:24;100868.0;;;13.99;71.08
50652;BME280;61429;52.086;5.240;2022-11-06T09:20:36;100856.0;;;13.99;71.2
50652;BME280;61429;52.086;5.240;2022-11-06T09:22:13;100855.0;;;14.0;71.23
50652;BME280;61429;52.086;5.240;2022-11-06T09:23:49;100857.0;;;14.04;71.16
50652;BME280;61429;52.086;5.240;2022-11-06T09:25:26;100853.0;;;14.02;71.37
50652;BME280;61429;52.086;5.240;2022-11-06T09:28:41;100853.0;;;14.16;71.05
50652;BME280;61429;52.086;5.240;2022-11-06T09:30:19;100852.0;;;14.22;71.16
50652;BME280;61429;52.086;5.240;2022-11-06T09:31:57;100846.0;;;14.42;70.77
50652;BME280;61429;52.086;5.240;2022-11-06T09:35:10;100845.0;;;14.32;70.69
50652;BME280;61429;52.086;5.240;2022-11-06T09:36:47;100844.0;;;14.42;70.05
50652;BME280;61429;52.086;5.240;2022-11-06T09:38:24;100846.0;;;14.44;70.61
50652;BME280;61429;52.086;5.240;2022-11-06T09:41:44;100853.0;;;14.47;70.36
50652;BME280;61429;52.086;5.240;2022-11-06T09:43:36;100848.0;;;14.49;69.67
50652;BME280;61429;52.086;5.240;2022-11-06T09:45:23;100848.0;;;14.41;69.89
50652;BME280;61429;52.086;5.240;2022-11-06T09:47:05;100843.0;;;14.53;69.92
50652;BME280;61429;52.086;5.240;2022-11-06T09:48:48;100851.0;;;14.51;69.53
50652;BME280;61429;52.086;5.240;2022-11-06T09:52:12;100847.0;;;14.39;69.67
50652;BME280;61429;52.086;5.240;2022-11-06T09:53:55;100842.0;;;14.56;71.63
50652;BME280;61429;52.086;5.240;2022-11-06T09:55:39;100847.0;;;14.53;69.33
50652;BME280;61429;52.086;5.240;2022-11-06T09:57:18;100848.0;;;14.51;68.92
50652;BME280;61429;52.086;5.240;2022-11-06T09:58:59;100841.0;;;14.44;69.13
50652;BME280;61429;52.086;5.240;2022-11-06T10:02:26;100839.0;;;14.46;68.91
50652;BME280;61429;52.086;5.240;2022-11-06T10:04:06;100842.0;;;14.29;69.55
50652;BME280;61429;52.086;5.240;2022-11-06T10:05:51;100845.0;;;14.33;70.14
50652;BME280;61429;52.086;5.240;2022-11-06T10:07:31;100853.0;;;14.23;69.87
50652;BME280;61429;52.086;5.240;2022-11-06T10:12:44;100845.0;;;14.4;70.16
50652;BME280;61429;52.086;5.240;2022-11-06T10:14:39;100834.0;;;14.42;69.53
50652;BME280;61429;52.086;5.240;2022-11-06T10:16:53;100835.0;;;14.33;69.69
50652;BME280;61429;52.086;5.240;2022-11-06T10:18:46;100825.0;;;14.37;69.31
50652;BME280;61429;52.086;5.240;2022-11-06T10:20:30;100827.0;;;14.47;68.86
50652;BME280;61429;52.086;5.240;2022-11-06T10:22:13;100817.0;;;14.46;68.89
50652;BME280;61429;52.086;5.240;2022-11-06T10:25:44;100819.0;;;14.51;68.59
50652;BME280;61429;52.086;5.240;2022-11-06T10:27:35;100811.0;;;14.5;68.66
50652;BME280;61429;52.086;5.240;2022-11-06T10:29:35;100810.0;;;14.56;68.87
50652;BME280;61429;52.086;5.240;2022-11-06T10:31:45;100811.0;;;14.55;68.7
50652;BME280;61429;52.086;5.240;2022-11-06T10:33:33;100811.0;;;14.54;68.8
50652;BME280;61429;52.086;5.240;2022-11-06T10:35:22;100811.0;;;14.64;68.27
50652;BME280;61429;52.086;5.240;2022-11-06T10:37:03;100803.0;;;14.46;68.34
50652;BME280;61429;52.086;5.240;2022-11-06T10:38:45;100803.0;;;14.38;68.91
50652;BME280;61429;52.086;5.240;2022-11-06T10:42:11;100805.0;;;14.26;69.34
50652;BME280;61429;52.086;5.240;2022-11-06T10:43:55;100799.0;;;14.17;69.61
50652;BME280;61429;52.086;5.240;2022-11-06T10:45:39;100798.0;;;14.31;69.77
50652;BME280;61429;52.086;5.240;2022-11-06T10:47:19;100791.0;;;14.28;69.33
50652;BME280;61429;52.086;5.240;2022-11-06T10:50:52;100792.0;;;14.31;69.69
50652;BME280;61429;52.086;5.240;2022-11-06T10:52:40;100785.0;;;14.23;69.25
50652;BME280;61429;52.086;5.240;2022-11-06T10:54:40;100789.0;;;14.34;69.39
50652;BME280;61429;52.086;5.240;2022-11-06T10:56:32;100780.0;;;14.26;68.91
50652;BME280;61429;52.086;5.240;2022-11-06T10:58:20;100780.0;;;14.38;68.62
50652;BME280;61429;52.086;5.240;2022-11-06T10:59:59;100781.0;;;14.45;69.16
50652;BME280;61429;52.086;5.240;2022-11-06T11:03:18;100775.0;;;14.31;69.74
50652;BME280;61429;52.086;5.240;2022-11-06T11:04:58;100770.0;;;14.4;69.69
50652;BME280;61429;52.086;5.240;2022-11-06T11:06:37;100760.0;;;14.37;69.98
50652;BME280;61429;52.086;5.240;2022-11-06T11:08:31;100755.0;;;14.3;70.2
50652;BME280;61429;52.086;5.240;2022-11-06T11:10:29;100755.0;;;14.31;70.48
50652;BME280;61429;52.086;5.240;2022-11-06T11:12:18;100748.0;;;14.42;70.34
50652;BME280;61429;52.086;5.240;2022-11-06T11:15:58;100747.0;;;14.43;70.33
50652;BME280;61429;52.086;5.240;2022-11-06T11:17:35;100742.0;;;14.47;70.86
50652;BME280;61429;52.086;5.240;2022-11-06T11:19:21;100741.0;;;14.44;70.37
50652;BME280;61429;52.086;5.240;2022-11-06T11:21:06;100743.0;;;14.43;70.52
50652;BME280;61429;52.086;5.240;2022-11-06T11:23:12;100741.0;;;14.53;70.13
50652;BME280;61429;52.086;5.240;2022-11-06T11:24:59;100734.0;;;14.42;70.69
50652;BME280;61429;52.086;5.240;2022-11-06T11:28:21;100735.0;;;14.62;69.8
50652;BME280;61429;52.086;5.240;2022-11-06T11:30:05;100730.0;;;14.43;71.13
50652;BME280;61429;52.086;5.240;2022-11-06T11:31:45;100727.0;;;14.39;69.94
50652;BME280;61429;52.086;5.240;2022-11-06T11:33:24;100728.0;;;14.47;69.91
50652;BME280;61429;52.086;5.240;2022-11-06T11:36:52;100721.0;;;14.67;68.94
50652;BME280;61429;52.086;5.240;2022-11-06T11:38:29;100726.0;;;14.64;68.75
50652;BME280;61429;52.086;5.240;2022-11-06T11:40:35;100725.0;;;14.41;68.98
50652;BME280;61429;52.086;5.240;2022-11-06T11:42:21;100721.0;;;14.33;69.0
50652;BME280;61429;52.086;5.240;2022-11-06T11:44:04;100715.0;;;14.36;68.37
50652;BME280;61429;52.086;5.240;2022-11-06T11:45:42;100713.0;;;14.3;68.67
50652;BME280;61429;52.086;5.240;2022-11-06T11:48:58;100709.0;;;14.39;68.22
50652;BME280;61429;52.086;5.240;2022-11-06T11:50:35;100708.0;;;14.53;68.44
50652;BME280;61429;52.086;5.240;2022-11-06T11:52:17;100701.0;;;14.5;68.36
50652;BME280;61429;52.086;5.240;2022-11-06T11:55:40;100707.0;;;14.69;67.72
50652;BME280;61429;52.086;5.240;2022-11-06T11:57:20;100692.0;;;14.59;68.08
50652;BME280;61429;52.086;5.240;2022-11-06T11:59:00;100686.0;;;14.53;67.52
50652;BME280;61429;52.086;5.240;2022-11-06T12:00:49;100684.0;;;14.51;67.19
50652;BME280;61429;52.086;5.240;2022-11-06T12:02:33;100682.0;;;14.56;67.19
50652;BME280;61429;52.086;5.240;2022-11-06T12:06:05;100676.0;;;14.52;67.19
50652;BME280;61429;52.086;5.240;2022-11-06T12:07:47;100680.0;;;14.53;66.91
50652;BME280;61429;52.086;5.240;2022-11-06T12:09:29;100667.0;;;14.52;67.06
50652;BME280;61429;52.086;5.240;2022-11-06T12:11:12;100669.0;;;14.43;67.02
50652;BME280;61429;52.086;5.240;2022-11-06T12:12:50;100659.0;;;14.55;66.86
50652;BME280;61429;52.086;5.240;2022-11-06T12:16:12;100658.0;;;14.32;66.97
50652;BME280;61429;52.086;5.240;2022-11-06T12:17:54;100658.0;;;14.41;66.91
50652;BME280;61429;52.086;5.240;2022-11-06T12:19:35;100651.0;;;14.61;66.33
50652;BME280;61429;52.086;5.240;2022-11-06T12:21:19;100649.0;;;14.58;66.61
50652;BME280;61429;52.086;5.240;2022-11-06T12:24:51;100634.0;;;14.61;66.44
50652;BME280;61429;52.086;5.240;2022-11-06T12:26:34;100634.0;;;14.55;66.77
50652;BME280;61429;52.086;5.240;2022-11-06T12:28:15;100632.0;;;14.56;67.02
50652;BME280;61429;52.086;5.240;2022-11-06T12:30:01;100632.0;;;14.64;66.52
50652;BME280;61429;52.086;5.240;2022-11-06T12:31:43;100625.0;;;14.57;66.42
50652;BME280;61429;52.086;5.240;2022-11-06T12:35:08;100615.0;;;14.74;66.56
50652;BME280;61429;52.086;5.240;2022-11-06T12:37:10;100612.0;;;14.75;66.3
50652;BME280;61429;52.086;5.240;2022-11-06T12:38:51;100616.0;;;14.83;65.91
50652;BME280;61429;52.086;5.240;2022-11-06T12:40:37;100608.0;;;14.79;65.69
50652;BME280;61429;52.086;5.240;2022-11-06T12:42:16;100601.0;;;14.75;66.22
50652;BME280;61429;52.086;5.240;2022-11-06T12:45:41;100602.0;;;14.66;66.3
50652;BME280;61429;52.086;5.240;2022-11-06T12:47:33;100596.0;;;14.59;65.85
50652;BME280;61429;52.086;5.240;2022-11-06T12:49:30;100599.0;;;14.62;65.52
50652;BME280;61429;52.086;5.240;2022-11-06T12:52:19;100596.0;;;14.67;65.86
50652;BME280;61429;52.086;5.240;2022-11-06T12:54:13;100597.0;;;14.66;66.2
50652;BME280;61429;52.086;5.240;2022-11-06T12:56:04;100600.0;;;14.65;65.97
50652;BME280;61429;52.086;5.240;2022-11-06T12:57:56;100607.0;;;14.55;66.45
50652;BME280;61429;52.086;5.240;2022-11-06T12:59:49;100605.0;;;14.64;66.44
50652;BME280;61429;52.086;5.240;2022-11-06T13:01:41;100600.0;;;14.64;67.48
50652;BME280;61429;52.086;5.240;2022-11-06T13:03:34;100601.0;;;14.72;67.41
50652;BME280;61429;52.086;5.240;2022-11-06T13:05:24;100602.0;;;14.59;68.33
50652;BME280;61429;52.086;5.240;2022-11-06T13:09:26;100600.0;;;14.44;69.62
50652;BME280;61429;52.086;5.240;2022-11-06T13:13:09;100596.0;;;14.53;69.44
50652;BME280;61429;52.086;5.240;2022-11-06T13:15:03;100592.0;;;14.45;69.02
50652;BME280;61429;52.086;5.240;2022-11-06T13:16:50;100598.0;;;14.36;69.03
50652;BME280;61429;52.086;5.240;2022-11-06T13:18:34;100602.0;;;14.41;69.5
50652;BME280;61429;52.086;5.240;2022-11-06T13:20:21;100605.0;;;14.41;69.61
50652;BME280;61429;52.086;5.240;2022-11-06T13:22:10;100598.0;;;14.29;69.99
50652;BME280;61429;52.086;5.240;2022-11-06T13:23:58;100603.0;;;14.31;68.91
50652;BME280;61429;52.086;5.240;2022-11-06T13:27:29;100601.0;;;14.17;69.62
50652;BME280;61429;52.086;5.240;2022-11-06T13:29:11;100600.0;;;14.2;69.86
50652;BME280;61429;52.086;5.240;2022-11-06T13:30:51;100597.0;;;14.02;69.36
50652;BME280;61429;52.086;5.240;2022-11-06T13:32:31;100598.0;;;13.89;69.75
50652;BME280;61429;52.086;5.240;2022-11-06T13:35:55;100594.0;;;13.86;70.05
50652;BME280;61429;52.086;5.240;2022-11-06T13:37:37;100594.0;;;13.9;70.27
50652;BME280;61429;52.086;5.240;2022-11-06T13:39:19;100597.0;;;13.92;70.38
50652;BME280;61429;52.086;5.240;2022-11-06T13:41:00;100596.0;;;13.72;70.91
50652;BME280;61429;52.086;5.240;2022-11-06T13:44:21;100597.0;;;13.76;70.77
50652;BME280;61429;52.086;5.240;2022-11-06T13:46:06;100593.0;;;13.85;71.3
50652;BME280;61429;52.086;5.240;2022-11-06T13:47:55;100598.0;;;13.66;71.58
50652;BME280;61429;52.086;5.240;2022-11-06T13:49:44;100595.0;;;13.73;71.83
50652;BME280;61429;52.086;5.240;2022-11-06T13:51:32;100593.0;;;13.64;71.95
50652;BME280;61429;52.086;5.240;2022-11-06T13:53:20;100586.0;;;13.54;72.84
50652;BME280;61429;52.086;5.240;2022-11-06T13:57:04;100578.0;;;13.51;72.66
50652;BME280;61429;52.086;5.240;2022-11-06T13:59:24;100577.0;;;13.47;72.98
50652;BME280;61429;52.086;5.240;2022-11-06T14:02:58;100582.0;;;13.29;74.66
50652;BME280;61429;52.086;5.240;2022-11-06T14:05:02;100576.0;;;13.08;74.66
50652;BME280;61429;52.086;5.240;2022-11-06T14:07:05;100578.0;;;13.01;75.37
50652;BME280;61429;52.086;5.240;2022-11-06T14:08:48;100577.0;;;12.76;76.41
50652;BME280;61429;52.086;5.240;2022-11-06T14:10:33;100578.0;;;12.88;75.98
50652;BME280;61429;52.086;5.240;2022-11-06T14:12:15;100573.0;;;12.97;76.08
50652;BME280;61429;52.086;5.240;2022-11-06T14:15:38;100572.0;;;13.05;76.06
50652;BME280;61429;52.086;5.240;2022-11-06T14:17:21;100578.0;;;13.05;76.44
50652;BME280;61429;52.086;5.240;2022-11-06T14:19:04;100566.0;;;13.02;76.62
50652;BME280;61429;52.086;5.240;2022-11-06T14:20:42;100560.0;;;12.86;76.69
50652;BME280;61429;52.086;5.240;2022-11-06T14:24:15;100563.0;;;12.72;77.05
50652;BME280;61429;52.086;5.240;2022-11-06T14:26:08;100563.0;;;12.66;77.52
50652;BME280;61429;52.086;5.240;2022-11-06T14:28:04;100557.0;;;12.57;77.33
50652;BME280;61429;52.086;5.240;2022-11-06T14:31:58;100550.0;;;12.68;77.36
50652;BME280;61429;52.086;5.240;2022-11-06T14:34:25;100556.0;;;12.42;77.28
50652;BME280;61429;52.086;5.240;2022-11-06T14:36:28;100557.0;;;12.48;77.3
50652;BME280;61429;52.086;5.240;2022-11-06T14:38:10;100553.0;;;12.44;77.27
50652;BME280;61429;52.086;5.240;2022-11-06T14:40:03;100552.0;;;12.42;77.27
50652;BME280;61429;52.086;5.240;2022-11-06T14:41:57;100549.0;;;12.2;77.62
50652;BME280;61429;52.086;5.240;2022-11-06T14:43:38;100550.0;;;12.38;77.55
50652;BME280;61429;52.086;5.240;2022-11-06T14:47:06;100546.0;;;12.38;77.59
50652;BME280;61429;52.086;5.240;2022-11-06T14:48:46;100534.0;;;12.37;78.16
50652;BME280;61429;52.086;5.240;2022-11-06T14:50:28;100540.0;;;12.09;78.33
50652;BME280;61429;52.086;5.240;2022-11-06T14:52:15;100533.0;;;12.03;79.24
50652;BME280;61429;52.086;5.240;2022-11-06T14:53:55;100531.0;;;12.13;78.39
50652;BME280;61429;52.086;5.240;2022-11-06T14:57:34;100523.0;;;12.05;78.66
50652;BME280;61429;52.086;5.240;2022-11-06T14:59:27;100514.0;;;11.98;78.63
50652;BME280;61429;52.086;5.240;2022-11-06T15:01:13;100509.0;;;12.13;78.16
50652;BME280;61429;52.086;5.240;2022-11-06T15:02:53;100508.0;;;11.94;78.61
50652;BME280;61429;52.086;5.240;2022-11-06T15:04:31;100506.0;;;12.15;78.22
50652;BME280;61429;52.086;5.240;2022-11-06T15:08:51;100502.0;;;11.98;77.94
50652;BME280;61429;52.086;5.240;2022-11-06T15:11:01;100507.0;;;11.96;78.02
50652;BME280;61429;52.086;5.240;2022-11-06T15:13:23;100510.0;;;12.07;77.45
50652;BME280;61429;52.086;5.240;2022-11-06T15:15:05;100501.0;;;12.03;77.63
50652;BME280;61429;52.086;5.240;2022-11-06T15:18:41;100497.0;;;12.11;77.44
50652;BME280;61429;52.086;5.240;2022-11-06T15:20:26;100499.0;;;12.03;77.42
50652;BME280;61429;52.086;5.240;2022-11-06T15:22:11;100493.0;;;11.88;77.75
50652;BME280;61429;52.086;5.240;2022-11-06T15:24:00;100485.0;;;11.83;78.0
50652;BME280;61429;52.086;5.240;2022-11-06T15:25:44;100485.0;;;11.8;78.31
50652;BME280;61429;52.086;5.240;2022-11-06T15:27:27;100474.0;;;11.82;78.05
50652;BME280;61429;52.086;5.240;2022-11-06T15:31:04;100473.0;;;11.78;78.36
50652;BME280;61429;52.086;5.240;2022-11-06T15:32:46;100470.0;;;11.81;78.05
50652;BME280;61429;52.086;5.240;2022-11-06T15:34:29;100470.0;;;11.63;78.45
50652;BME280;61429;52.086;5.240;2022-11-06T15:36:12;100467.0;;;11.87;78.61
50652;BME280;61429;52.086;5.240;2022-11-06T15:37:51;100458.0;;;11.77;78.63
50652;BME280;61429;52.086;5.240;2022-11-06T15:41:18;100460.0;;;11.42;79.2
50652;BME280;61429;52.086;5.240;2022-11-06T15:43:00;100452.0;;;11.61;78.91
50652;BME280;61429;52.086;5.240;2022-11-06T15:44:41;100460.0;;;11.63;79.16
50652;BME280;61429;52.086;5.240;2022-11-06T15:46:23;100452.0;;;11.6;79.05
50652;BME280;61429;52.086;5.240;2022-11-06T15:49:40;100446.0;;;11.58;78.98
50652;BME280;61429;52.086;5.240;2022-11-06T15:51:20;100443.0;;;11.54;78.91
50652;BME280;61429;52.086;5.240;2022-11-06T15:53:18;100439.0;;;11.24;79.02
50652;BME280;61429;52.086;5.240;2022-11-06T15:54:58;100434.0;;;11.04;79.78
50652;BME280;61429;52.086;5.240;2022-11-06T15:58:24;100428.0;;;11.05;80.22
50652;BME280;61429;52.086;5.240;2022-11-06T16:00:07;100428.0;;;10.99;80.5
50652;BME280;61429;52.086;5.240;2022-11-06T16:01:46;100428.0;;;10.93;79.98
50652;BME280;61429;52.086;5.240;2022-11-06T16:03:26;100424.0;;;11.04;80.09
50652;BME280;61429;52.086;5.240;2022-11-06T16:05:04;100414.0;;;11.05;79.58
50652;BME280;61429;52.086;5.240;2022-11-06T16:08:22;100414.0;;;11.04;78.98
50652;BME280;61429;52.086;5.240;2022-11-06T16:10:00;100412.0;;;11.05;78.91
50652;BME280;61429;52.086;5.240;2022-11-06T16:11:37;100407.0;;;10.94;77.83
50652;BME280;61429;52.086;5.240;2022-11-06T16:14:53;100401.0;;;10.79;78.78
50652;BME280;61429;52.086;5.240;2022-11-06T16:16:34;100395.0;;;10.94;78.8
50652;BME280;61429;52.086;5.240;2022-11-06T16:18:15;100397.0;;;10.84;79.41
50652;BME280;61429;52.086;5.240;2022-11-06T16:19:56;100392.0;;;10.76;78.69
50652;BME280;61429;52.086;5.240;2022-11-06T16:23:13;100391.0;;;10.67;80.08
50652;BME280;61429;52.086;5.240;2022-11-06T16:24:57;100386.0;;;10.78;79.22
50652;BME280;61429;52.086;5.240;2022-11-06T16:26:37;100378.0;;;10.98;79.58
50652;BME280;61429;52.086;5.240;2022-11-06T16:28:16;100380.0;;;10.79;79.28
50652;BME280;61429;52.086;5.240;2022-11-06T16:31:34;100377.0;;;10.71;80.36
50652;BME280;61429;52.086;5.240;2022-11-06T16:33:17;100372.0;;;10.7;79.44
50652;BME280;61429;52.086;5.240;2022-11-06T16:34:59;100368.0;;;10.75;78.58
50652;BME280;61429;52.086;5.240;2022-11-06T16:36:57;100373.0;;;10.88;78.87
50652;BME280;61429;52.086;5.240;2022-11-06T16:38:37;100372.0;;;10.9;77.86
50652;BME280;61429;52.086;5.240;2022-11-06T16:42:28;100367.0;;;10.72;78.28
50652;BME280;61429;52.086;5.240;2022-11-06T16:44:22;100363.0;;;10.7;78.12
50652;BME280;61429;52.086;5.240;2022-11-06T16:46:21;100356.0;;;10.8;78.8
50652;BME280;61429;52.086;5.240;2022-11-06T16:49:30;100358.0;;;10.79;78.02
50652;BME280;61429;52.086;5.240;2022-11-06T16:51:10;100373.0;;;10.74;78.05
50652;BME280;61429;52.086;5.240;2022-11-06T16:54:31;100364.0;;;10.81;77.52
50652;BME280;61429;52.086;5.240;2022-11-06T16:56:08;100360.0;;;10.66;77.52
50652;BME280;61429;52.086;5.240;2022-11-06T16:57:47;100370.0;;;10.8;77.33
50652;BME280;61429;52.086;5.240;2022-11-06T16:59:26;100373.0;;;10.92;76.36
50652;BME280;61429;52.086;5.240;2022-11-06T17:02:46;100383.0;;;10.77;77.14
50652;BME280;61429;52.086;5.240;2022-11-06T17:04:26;100382.0;;;10.87;76.95
50652;BME280;61429;52.086;5.240;2022-11-06T17:06:03;100383.0;;;10.78;76.62
50652;BME280;61429;52.086;5.240;2022-11-06T17:09:27;100374.0;;;10.67;77.5
50652;BME280;61429;52.086;5.240;2022-11-06T17:11:15;100380.0;;;10.83;77.91
50652;BME280;61429;52.086;5.240;2022-11-06T17:12:53;100375.0;;;10.74;77.42
50652;BME280;61429;52.086;5.240;2022-11-06T17:14:31;100370.0;;;10.8;76.92
50652;BME280;61429;52.086;5.240;2022-11-06T17:16:12;100362.0;;;10.66;77.67
50652;BME280;61429;52.086;5.240;2022-11-06T17:19:27;100370.0;;;10.74;77.11
50652;BME280;61429;52.086;5.240;2022-11-06T17:21:06;100360.0;;;10.66;77.44
50652;BME280;61429;52.086;5.240;2022-11-06T17:22:49;100366.0;;;10.59;77.28
50652;BME280;61429;52.086;5.240;2022-11-06T17:26:05;100352.0;;;10.73;77.67
50652;BME280;61429;52.086;5.240;2022-11-06T17:27:47;100348.0;;;10.51;78.16
50652;BME280;61429;52.086;5.240;2022-11-06T17:29:23;100349.0;;;10.49;78.59
50652;BME280;61429;52.086;5.240;2022-11-06T17:31:00;100358.0;;;10.64;78.05
50652;BME280;61429;52.086;5.240;2022-11-06T17:34:13;100367.0;;;10.69;78.11
50652;BME280;61429;52.086;5.240;2022-11-06T17:35:51;100369.0;;;10.67;77.83
50652;BME280;61429;52.086;5.240;2022-11-06T17:37:28;100375.0;;;10.77;77.97
50652;BME280;61429;52.086;5.240;2022-11-06T17:40:43;100369.0;;;10.61;77.92
50652;BME280;61429;52.086;5.240;2022-11-06T17:42:20;100359.0;;;10.45;77.94
50652;BME280;61429;52.086;5.240;2022-11-06T17:43:58;100364.0;;;10.48;78.52
50652;BME280;61429;52.086;5.240;2022-11-06T17:45:35;100378.0;;;10.57;78.31
50652;BME280;61429;52.086;5.240;2022-11-06T17:48:49;100359.0;;;10.62;78.2
50652;BME280;61429;52.086;5.240;2022-11-06T17:50:26;100362.0;;;10.59;78.36
50652;BME280;61429;52.086;5.240;2022-11-06T17:52:03;100362.0;;;10.54;78.49
50652;BME280;61429;52.086;5.240;2022-11-06T17:55:18;100367.0;;;10.65;78.33
50652;BME280;61429;52.086;5.240;2022-11-06T17:56:56;100372.0;;;10.74;77.66
50652;BME280;61429;52.086;5.240;2022-11-06T17:58:35;100367.0;;;10.62;78.08